Route Details

Aircraft Information
Group: North America Fleet
Types: B738, B752, B762, B763
Route Data
Distance: 161nm
Duration: 1h 05m
Origin METAR: KLAL 080035Z AUTO 09007KT 10SM CLR 20/12 A3026 RMK AO2 T02030120
Dest. METAR: KMIA 072353Z 10010KT 10SM SCT040 SCT250 24/15 A3023 RMK AO2 SLP236 T02390150 10267 20233 53008 $
Freight Data
(for Feb 8, 2023)
Load Factor:
55%
Manifested Cargo: 38,492lbs
Financial History
Total Freight: 445,503lbs
Average Load: 0lbs/flt
Fuel Used: 102,787lbs
Avg. Fuel Used: 0lbs/flt
Fuel Expense: $47,773
Avg. Fuel Expense: $0
Avg. Fuel Cost: $0/lbs
Total Gross Income: $1,095,937
Pilot Pay: $1,960
Total Expenses: $278,260
Total Revenue: $767,829
Average Revenue: $0

Capitol Logistics 497




KLAL
Lakeland Linder Regional Airport
Lakeland, Florida
KMIA
Miami International Airport
Miami, Florida

Activity Log

Date Flight Route Aircraft Duration
01/14/2023 CPX497 DCT WUDDY DCT SABEE FROGZ3 B738 1h 05m
09/22/2022 CPX497 DCT CROWD DCT ROGAN DCT RSW PALMZ2 B763 1h 01m
09/18/2022 CPX497 DCT CROWD DCT ROGAN DCT RSW PALMZ2 B763 0h 43m
09/02/2022 CPX497 CROWD ROGAN RSW CYY1 B738 0h 55m
08/20/2022 CPX497 Not Available B763 0h 41m
08/05/2022 CPX497 DCT CROWD DCT ROGAN DCT RSW DCT FROGZ FROGZ2 B738 0h 42m
08/04/2022 CPX497 DCT CROWD DCT ROGAN DCT RSW DCT FROGZ FROGZ2 B738 0h 43m
07/14/2022 CPX497 DCT CROWD DCT ROGAN DCT RSW DCT FROGZ FROGZ2 B752 0h 46m
07/11/2022 CPX497 CROWD HALLR B763 0h 47m
07/03/2022 CPX209 CROWD ROGAN RSW PALMZ2 B763 0h 39m